Terminal Aerodrome Forecast
Issued by NWS

Home | Current Version | Previous Version | Graphics & Text | Print | Product List | Glossary On
Versions: 1 2 3 4 5 6 7 8 9 10 11 12 13 14 15 16 17 18 19 20 21 22 23
636
FTUS42 KMHX 011137
TAFPGV
TAF
KPGV 011137Z 0112/0212 10005KT P6SM SCT008 BKN020
     FM011500 15008KT P6SM SCT025 BKN040
     FM011800 20011G18KT P6SM VCTS BKN040CB
     FM012200 20010KT P6SM BKN040
     FM020600 20007KT P6SM VCSH SCT007 OVC030
      AMD LTD TO CLD VIS AND WIND=

USA.gov is the U.S. government's official web portal to all federal, state and local government web resources and services.